Аэропорт: Чебоксары. Чебоксары

ICAO: UWKS

METAR:
2023-09-29 23:30:00
UWKS 292330Z 16001MPS CAVOK 09/09 Q1021 R06/010060 NOSIG RMK QFE751
METAR:
2023-09-29 19:47:00
TAF UWKS 291947Z 2921/3006 VRB01MPS 9999 SCT040 TX14/3006Z TN09/3001Z